Montgomery, Alabama
Current Conditions -  °F | °C
As of 12:53 AM on Saturday 29 Nov 2014 (Local Time) from KMGM Reporting Station
Clear Clear  
Wind Chill: 34°   Ceiling: Unl
Heat Index: 34°   Visibility: 10mi
Dew Point: 24°   Wind: 0mph
Humidity: 67%   Direction: NA
Pressure: 30.27"   Gusts: NA
Location:  32.38°N, 86.3°W
Report Text: KMGM 290653Z AUTO 00000KT 10SM CLR 01/M04 A3027 RMK AO2 SLP250 T00111044 FZRANO
Loading
Personal Weather Stations






























Interactive Weather Map New forecast layout! Learn more

10-Day Weather Forecast

Advertisements
Track Severe Weather on mobile